createdAt,value
2019-02-12T00:00:27.495Z,87.80
2019-02-12T00:02:56.900Z,88.30
2019-02-12T00:05:26.233Z,88.50
2019-02-12T00:07:56.546Z,88.60
2019-02-12T00:10:25.834Z,88.80
2019-02-12T00:12:55.169Z,88.80
2019-02-12T00:15:24.471Z,89.00
2019-02-12T00:17:53.812Z,88.80
2019-02-12T00:20:23.105Z,88.70
2019-02-12T00:22:52.448Z,88.50
2019-02-12T00:25:21.744Z,88.40
2019-02-12T00:27:51.082Z,88.40
2019-02-12T00:30:20.394Z,88.10
2019-02-12T00:32:49.731Z,87.80
2019-02-12T00:35:19.037Z,87.60
2019-02-12T00:37:48.374Z,87.80
2019-02-12T00:40:17.674Z,87.60
2019-02-12T00:42:47.019Z,87.60
2019-02-12T00:45:16.311Z,87.20
2019-02-12T00:47:45.652Z,87.10
2019-02-12T00:50:14.953Z,87.10
2019-02-12T00:52:44.286Z,87.00
2019-02-12T00:55:13.633Z,87.00
2019-02-12T00:57:42.932Z,87.10
2019-02-12T01:00:14.043Z,87.30
2019-02-12T01:02:43.450Z,87.60
2019-02-12T01:05:13.730Z,87.50
2019-02-12T01:07:43.073Z,87.70
2019-02-12T01:10:12.373Z,87.70
2019-02-12T01:12:41.713Z,87.70
2019-02-12T01:15:14.026Z,87.90
2019-02-12T01:17:43.376Z,88.00
2019-02-12T01:20:13.614Z,88.10
2019-02-12T01:22:42.977Z,88.30
2019-02-12T01:25:12.277Z,88.70
2019-02-12T01:27:41.620Z,89.00
2019-02-12T01:30:13.497Z,89.10
2019-02-12T01:32:42.805Z,89.30
2019-02-12T01:35:12.141Z,89.40
2019-02-12T01:37:41.444Z,89.50
2019-02-12T01:40:12.026Z,89.50
2019-02-12T01:42:41.332Z,89.40
2019-02-12T01:45:11.499Z,89.50
2019-02-12T01:47:40.800Z,89.60
2019-02-12T01:50:11.687Z,89.70
2019-02-12T01:52:40.986Z,89.80
2019-02-12T01:55:10.328Z,89.50
2019-02-12T01:57:39.625Z,89.60
2019-02-12T02:00:11.513Z,89.90
2019-02-12T02:02:40.887Z,89.90
2019-02-12T02:05:10.401Z,89.70
2019-02-12T02:07:39.697Z,89.60
2019-02-12T02:10:12.897Z,89.70
2019-02-12T02:12:42.201Z,89.60
2019-02-12T02:15:12.189Z,89.70
2019-02-12T02:17:41.559Z,89.80
2019-02-12T02:20:13.141Z,90.00
2019-02-12T02:22:42.440Z,90.00
2019-02-12T02:25:13.303Z,90.10
2019-02-12T02:27:42.595Z,90.10
2019-02-12T02:30:14.338Z,90.10
2019-02-12T02:32:44.685Z,90.20
2019-02-12T02:35:14.027Z,90.20
2019-02-12T02:37:43.321Z,90.20
2019-02-12T02:40:13.634Z,90.30
2019-02-12T02:42:42.945Z,90.30
2019-02-12T02:45:13.113Z,90.30
2019-02-12T02:47:43.398Z,90.40
2019-02-12T02:50:12.736Z,90.30
2019-02-12T02:52:42.037Z,90.50
2019-02-12T02:55:12.346Z,90.50
2019-02-12T02:57:41.651Z,90.50
2019-02-12T03:00:11.638Z,90.60
2019-02-12T03:02:41.012Z,90.70
2019-02-12T03:05:11.497Z,90.60
2019-02-12T03:07:40.789Z,90.70
2019-02-12T03:10:11.956Z,90.60
2019-02-12T03:12:41.257Z,90.60
2019-02-12T03:15:11.238Z,90.70
2019-02-12T03:17:40.574Z,90.70
2019-02-12T03:20:12.731Z,90.70
2019-02-12T03:22:42.039Z,90.80
2019-02-12T03:25:11.379Z,90.90
2019-02-12T03:27:40.675Z,90.90
2019-02-12T03:30:12.393Z,90.80
2019-02-12T03:32:42.119Z,90.80
2019-02-12T03:35:11.632Z,90.90
2019-02-12T03:37:40.966Z,90.90
2019-02-12T03:40:11.347Z,90.90
2019-02-12T03:42:40.665Z,91.20
2019-02-12T03:45:12.028Z,90.90
2019-02-12T03:47:41.336Z,90.90
2019-02-12T03:50:11.712Z,90.80
2019-02-12T03:52:41.007Z,90.80
2019-02-12T03:55:12.181Z,90.90
2019-02-12T03:57:41.482Z,90.80
2019-02-12T04:00:13.066Z,90.70
2019-02-12T04:02:59.146Z,90.70
2019-02-12T04:05:28.486Z,90.50
2019-02-12T04:07:57.917Z,90.40
2019-02-12T04:10:27.427Z,90.30
2019-02-12T04:12:56.729Z,90.10
2019-02-12T04:15:26.071Z,90.10
2019-02-12T04:17:55.434Z,90.10
2019-02-12T04:20:24.771Z,89.90
2019-02-12T04:22:54.072Z,89.80
2019-02-12T04:25:23.413Z,89.80
2019-02-12T04:27:52.710Z,90.00
2019-02-12T04:30:22.045Z,90.00
2019-02-12T04:32:51.351Z,90.10
2019-02-12T04:35:20.687Z,90.10
2019-02-12T04:37:49.990Z,90.20
2019-02-12T04:40:19.338Z,90.20
2019-02-12T04:42:48.638Z,90.40
2019-02-12T04:45:17.974Z,90.50
2019-02-12T04:47:47.274Z,90.50
2019-02-12T04:50:16.620Z,90.60
2019-02-12T04:52:45.934Z,90.60
2019-02-12T04:55:15.270Z,90.50
2019-02-12T04:57:44.577Z,90.30
2019-02-12T05:00:15.952Z,90.20
2019-02-12T05:02:45.250Z,90.10
2019-02-12T05:05:14.613Z,90.00
2019-02-12T05:07:43.920Z,89.90
2019-02-12T05:10:19.572Z,90.00
2019-02-12T05:12:48.951Z,89.60
2019-02-12T05:15:18.287Z,89.80
2019-02-12T05:17:47.632Z,89.50
2019-02-12T05:20:16.984Z,89.30
2019-02-12T05:22:46.330Z,89.20
2019-02-12T05:25:15.654Z,89.20
2019-02-12T05:27:44.977Z,88.60
2019-02-12T05:30:14.792Z,88.10
2019-02-12T05:32:44.121Z,87.30
2019-02-12T05:35:13.429Z,87.30
2019-02-12T05:37:42.821Z,87.30
2019-02-12T05:40:12.074Z,87.50
2019-02-12T05:42:41.420Z,88.00
2019-02-12T05:45:13.883Z,87.10
2019-02-12T05:47:43.230Z,87.30
2019-02-12T05:50:14.169Z,87.30
2019-02-12T05:52:53.277Z,87.20
2019-02-12T05:55:14.441Z,87.50
2019-02-12T05:57:43.787Z,87.30
2019-02-12T06:00:19.320Z,87.50
2019-02-12T06:02:48.674Z,87.60
2019-02-12T06:05:31.392Z,88.00
2019-02-12T06:08:01.685Z,88.00
2019-02-12T06:10:31.207Z,88.20
2019-02-12T06:13:00.542Z,88.40
2019-02-12T06:15:29.850Z,88.40
2019-02-12T06:17:59.183Z,88.50
2019-02-12T06:20:28.497Z,88.40
2019-02-12T06:23:03.858Z,88.50
2019-02-12T06:25:29.177Z,88.50
2019-02-12T06:27:58.515Z,88.50
2019-02-12T06:30:27.869Z,88.30
2019-02-12T06:32:57.214Z,88.10
2019-02-12T06:35:26.510Z,88.10
2019-02-12T06:37:55.898Z,88.00
2019-02-12T06:40:25.177Z,87.30
2019-02-12T06:42:54.522Z,86.50
2019-02-12T06:45:23.826Z,85.40
2019-02-12T06:47:53.166Z,84.40
2019-02-12T06:50:22.469Z,84.10
2019-02-12T06:52:51.812Z,83.80
2019-02-12T06:55:21.111Z,82.80
2019-02-12T06:57:50.445Z,80.90
2019-02-12T07:00:19.753Z,78.40
2019-02-12T07:03:10.890Z,76.70
2019-02-12T07:05:55.243Z,74.20
2019-02-12T07:08:48.815Z,73.40
2019-02-12T07:11:48.437Z,72.80
2019-02-12T07:14:24.741Z,71.80
2019-02-12T07:17:14.845Z,70.10
2019-02-12T07:20:09.565Z,68.10
2019-02-12T07:22:56.714Z,69.50
2019-02-12T07:25:52.679Z,72.70
2019-02-12T07:28:37.053Z,74.20
2019-02-12T07:31:14.798Z,75.90
2019-02-12T07:34:05.220Z,73.30
2019-02-12T07:36:43.438Z,71.40
2019-02-12T07:39:31.004Z,71.10
2019-02-12T07:42:15.244Z,72.70
2019-02-12T07:45:04.455Z,74.50
2019-02-12T07:48:10.180Z,73.80
2019-02-12T07:50:45.687Z,71.90
2019-02-12T07:53:38.805Z,70.40
2019-02-12T07:56:17.429Z,70.40
2019-02-12T07:59:04.930Z,70.50
2019-02-12T08:01:52.251Z,70.50
2019-02-12T08:04:58.237Z,67.60
2019-02-12T08:07:48.778Z,67.10
2019-02-12T08:10:33.081Z,66.30
2019-02-12T08:13:17.566Z,66.10
2019-02-12T08:15:52.737Z,66.90
2019-02-12T08:18:41.554Z,67.20
2019-02-12T08:21:14.284Z,65.10
2019-02-12T08:24:02.887Z,66.00
2019-02-12T08:26:46.851Z,67.00
2019-02-12T08:29:35.768Z,68.60
2019-02-12T08:32:17.245Z,65.90
2019-02-12T08:35:09.133Z,65.50
2019-02-12T08:38:01.103Z,66.90
2019-02-12T08:40:52.846Z,66.10
2019-02-12T08:43:43.483Z,65.40
2019-02-12T08:46:21.698Z,65.30
2019-02-12T08:48:54.442Z,64.00
2019-02-12T08:51:35.989Z,61.40
2019-02-12T08:54:23.355Z,57.90
2019-02-12T08:57:19.590Z,55.20
2019-02-12T09:00:07.394Z,52.00
2019-02-12T09:02:47.432Z,49.00
2019-02-12T09:05:29.045Z,47.60
2019-02-12T09:08:01.720Z,46.40
2019-02-12T09:10:53.441Z,44.60
2019-02-12T09:13:29.838Z,43.00
2019-02-12T09:16:21.693Z,39.50
2019-02-12T09:18:54.256Z,39.80
2019-02-12T09:22:01.142Z,40.90
2019-02-12T09:24:55.923Z,40.20
2019-02-12T09:27:50.921Z,39.30
2019-02-12T09:30:29.307Z,40.10
2019-02-12T09:33:06.359Z,38.30
2019-02-12T09:36:11.673Z,36.40
2019-02-12T09:38:44.281Z,37.30
2019-02-12T09:41:31.877Z,37.70
2019-02-12T09:44:10.326Z,37.10
2019-02-12T09:47:00.568Z,37.60
2019-02-12T09:49:38.977Z,36.00
2019-02-12T09:52:36.569Z,34.40
2019-02-12T09:55:25.616Z,34.50
2019-02-12T09:58:09.946Z,34.30
2019-02-12T10:00:42.519Z,34.00
2019-02-12T10:03:33.772Z,35.20
2019-02-12T10:06:34.457Z,35.50
2019-02-12T10:09:15.715Z,36.40
2019-02-12T10:11:57.457Z,36.80
2019-02-12T10:14:50.934Z,35.80
2019-02-12T10:17:29.158Z,34.90
2019-02-12T10:20:16.977Z,33.50
2019-02-12T10:23:06.466Z,33.80
2019-02-12T10:25:36.045Z,34.20
2019-02-12T10:28:12.563Z,33.90
2019-02-12T10:30:57.746Z,34.20
2019-02-12T10:33:28.117Z,35.70
2019-02-12T10:35:57.509Z,35.20
2019-02-12T10:38:26.819Z,35.20
2019-02-12T10:40:57.570Z,36.10
2019-02-12T10:43:26.918Z,35.60
2019-02-12T10:45:56.267Z,34.50
2019-02-12T10:48:25.870Z,33.90
2019-02-12T10:50:56.521Z,32.90
2019-02-12T10:53:25.950Z,33.60
2019-02-12T10:55:55.318Z,34.40
2019-02-12T10:58:24.606Z,35.20
2019-02-12T11:00:53.952Z,34.60
2019-02-12T11:03:23.259Z,34.00
2019-02-12T11:05:52.602Z,33.40
2019-02-12T11:08:21.901Z,32.90
2019-02-12T11:10:51.335Z,32.80
2019-02-12T11:13:20.686Z,32.60
2019-02-12T11:15:50.024Z,33.00
2019-02-12T11:18:20.706Z,32.70
2019-02-12T11:20:50.195Z,33.60
2019-02-12T11:23:19.506Z,35.20
2019-02-12T11:25:48.857Z,37.80
2019-02-12T11:28:18.155Z,39.30
2019-02-12T11:30:47.489Z,40.40
2019-02-12T11:33:17.482Z,39.90
2019-02-12T11:35:46.820Z,38.30
2019-02-12T11:38:16.293Z,35.90
2019-02-12T11:40:45.655Z,35.30
2019-02-12T11:43:15.932Z,34.30
2019-02-12T11:45:45.340Z,34.60
2019-02-12T11:48:17.913Z,33.30
2019-02-12T11:50:49.069Z,31.20
2019-02-12T11:53:18.384Z,32.20
2019-02-12T11:55:47.754Z,33.90
2019-02-12T11:58:17.068Z,35.20
2019-02-12T12:00:49.623Z,36.70
2019-02-12T12:03:19.010Z,37.40
2019-02-12T12:05:48.382Z,37.80
2019-02-12T12:08:17.731Z,38.20
2019-02-12T12:10:47.079Z,37.70
2019-02-12T12:13:16.425Z,36.40
2019-02-12T12:15:45.743Z,35.10
2019-02-12T12:18:15.651Z,35.20
2019-02-12T12:20:44.962Z,34.30
2019-02-12T12:23:14.304Z,33.70
2019-02-12T12:25:43.601Z,33.80
2019-02-12T12:28:12.962Z,33.60
2019-02-12T12:30:42.263Z,33.20
2019-02-12T12:33:11.649Z,33.30
2019-02-12T12:35:40.965Z,32.30
2019-02-12T12:38:10.314Z,32.60
2019-02-12T12:40:39.628Z,33.20
2019-02-12T12:43:08.962Z,32.70
2019-02-12T12:45:38.276Z,32.00
2019-02-12T12:48:07.619Z,32.60
2019-02-12T12:50:36.994Z,32.00
2019-02-12T12:53:06.531Z,33.30
2019-02-12T12:55:35.839Z,34.00
2019-02-12T12:58:05.257Z,34.20
2019-02-12T13:00:34.814Z,34.00
2019-02-12T13:03:04.129Z,33.50
2019-02-12T13:05:33.481Z,32.90
2019-02-12T13:08:02.919Z,33.60
2019-02-12T13:10:32.440Z,34.20
2019-02-12T13:13:01.833Z,34.70
2019-02-12T13:15:31.146Z,34.80
2019-02-12T13:18:02.152Z,35.50
2019-02-12T13:20:32.049Z,35.30
2019-02-12T13:23:01.393Z,34.80
2019-02-12T13:25:32.076Z,34.00
2019-02-12T13:28:01.426Z,34.50
2019-02-12T13:30:30.973Z,36.70
2019-02-12T13:33:02.005Z,39.40
2019-02-12T13:35:31.306Z,41.70
2019-02-12T13:38:01.035Z,41.00
2019-02-12T13:40:30.475Z,39.60
2019-02-12T13:42:59.913Z,37.90
2019-02-12T13:45:30.565Z,35.80
2019-02-12T13:47:59.929Z,35.20
2019-02-12T13:50:29.235Z,34.70
2019-02-12T13:52:58.657Z,35.40
2019-02-12T13:55:27.958Z,38.70
2019-02-12T13:57:58.246Z,41.00
2019-02-12T14:00:28.433Z,42.30
2019-02-12T14:02:58.119Z,41.50
2019-02-12T14:05:27.456Z,40.70
2019-02-12T14:07:56.781Z,40.00
2019-02-12T14:10:26.948Z,38.00
2019-02-12T14:12:56.313Z,38.70
2019-02-12T14:15:25.621Z,40.80
2019-02-12T14:17:56.100Z,42.30
2019-02-12T14:20:26.033Z,43.60
2019-02-12T14:22:55.325Z,43.60
2019-02-12T14:25:25.963Z,43.00
2019-02-12T14:27:55.739Z,41.00
2019-02-12T14:30:25.077Z,41.00
2019-02-12T14:32:54.403Z,41.50
2019-02-12T14:35:24.825Z,42.30
2019-02-12T14:37:55.389Z,42.30
2019-02-12T14:40:24.861Z,43.70
2019-02-12T14:42:54.298Z,44.90
2019-02-12T14:45:23.638Z,45.00
2019-02-12T14:47:53.052Z,46.20
2019-02-12T14:50:22.821Z,48.70
2019-02-12T14:52:52.186Z,49.00
2019-02-12T14:55:21.530Z,50.30
2019-02-12T14:57:50.831Z,52.50
2019-02-12T15:00:20.743Z,53.00
2019-02-12T15:02:50.041Z,54.50
2019-02-12T15:05:19.388Z,55.40
2019-02-12T15:07:48.804Z,56.90
2019-02-12T15:10:18.145Z,58.20
2019-02-12T15:12:47.462Z,59.60
2019-02-12T15:15:17.181Z,60.20
2019-02-12T15:17:46.566Z,60.60
2019-02-12T15:20:15.910Z,60.70
2019-02-12T15:22:45.215Z,61.40
2019-02-12T15:25:14.566Z,61.90
2019-02-12T15:27:43.869Z,62.70
2019-02-12T15:30:18.173Z,62.80
2019-02-12T15:32:47.545Z,63.00
2019-02-12T15:35:16.887Z,63.20
2019-02-12T15:37:46.209Z,63.30
2019-02-12T15:40:20.263Z,63.60
2019-02-12T15:42:49.771Z,64.20
2019-02-12T15:45:23.785Z,64.20
2019-02-12T15:47:53.334Z,64.60
2019-02-12T15:50:22.713Z,64.30
2019-02-12T15:52:52.015Z,64.60
2019-02-12T15:55:22.347Z,65.00
2019-02-12T15:57:52.273Z,64.90
2019-02-12T16:00:21.641Z,65.80
2019-02-12T16:02:51.006Z,66.10
2019-02-12T16:05:20.358Z,66.10
2019-02-12T16:07:49.706Z,66.60
2019-02-12T16:10:20.154Z,66.90
2019-02-12T16:12:51.476Z,67.40
2019-02-12T16:15:23.907Z,68.00
2019-02-12T16:17:51.705Z,68.10
2019-02-12T16:20:21.043Z,68.90
2019-02-12T16:22:50.351Z,69.40
2019-02-12T16:25:19.689Z,69.60
2019-02-12T16:27:49.000Z,69.60
2019-02-12T16:30:19.516Z,69.70
2019-02-12T16:32:48.817Z,69.90
2019-02-12T16:35:18.484Z,70.20
2019-02-12T16:37:47.850Z,70.50
2019-02-12T16:40:18.781Z,70.50
2019-02-12T16:42:48.186Z,70.90
2019-02-12T16:45:23.602Z,70.90
2019-02-12T16:47:52.944Z,71.20
2019-02-12T16:50:22.245Z,71.50
2019-02-12T16:52:51.602Z,71.40
2019-02-12T16:55:20.914Z,72.10
2019-02-12T16:57:50.325Z,72.40
2019-02-12T17:00:19.623Z,73.10
2019-02-12T17:02:48.969Z,73.70
2019-02-12T17:05:18.265Z,73.90
2019-02-12T17:07:47.609Z,74.30
2019-02-12T17:10:16.917Z,75.00
2019-02-12T17:12:46.333Z,76.10
2019-02-12T17:15:15.640Z,76.50
2019-02-12T17:17:45.050Z,77.20
2019-02-12T17:20:21.887Z,77.30
2019-02-12T17:22:51.226Z,77.70
2019-02-12T17:25:20.598Z,78.30
2019-02-12T17:27:49.955Z,78.90
2019-02-12T17:30:19.257Z,79.20
2019-02-12T17:32:48.772Z,79.70
2019-02-12T17:35:18.070Z,80.30
2019-02-12T17:37:47.412Z,80.80
2019-02-12T17:40:17.954Z,81.60
2019-02-12T17:42:47.397Z,82.10
2019-02-12T17:45:18.594Z,82.10
2019-02-12T17:47:47.950Z,82.10
2019-02-12T17:50:17.263Z,82.20
2019-02-12T17:52:46.608Z,82.30
2019-02-12T17:55:15.931Z,82.40
2019-02-12T17:57:45.280Z,82.60
2019-02-12T18:00:22.017Z,82.80
2019-02-12T18:02:51.364Z,83.00
2019-02-12T18:05:20.666Z,82.70
2019-02-12T18:07:50.005Z,82.30
2019-02-12T18:10:19.322Z,82.20
2019-02-12T18:12:48.675Z,82.10
2019-02-12T18:15:17.989Z,82.00
2019-02-12T18:17:47.350Z,82.10
2019-02-12T18:20:18.598Z,81.70
2019-02-12T18:22:48.463Z,81.40
2019-02-12T18:25:17.845Z,81.60
2019-02-12T18:27:47.297Z,81.90
2019-02-12T18:30:17.114Z,81.70
2019-02-12T18:32:46.475Z,82.00
2019-02-12T18:35:15.773Z,82.60
2019-02-12T18:37:45.132Z,82.80
2019-02-12T18:40:15.742Z,82.90
2019-02-12T18:42:45.082Z,83.40
2019-02-12T18:45:19.579Z,83.50
2019-02-12T18:47:49.153Z,83.60
2019-02-12T18:50:18.478Z,83.80
2019-02-12T18:52:47.888Z,84.10
2019-02-12T18:55:17.310Z,84.30
2019-02-12T18:57:46.662Z,84.10
2019-02-12T19:00:21.065Z,83.80
2019-02-12T19:02:50.575Z,83.60
2019-02-12T19:05:19.877Z,83.90
2019-02-12T19:07:49.383Z,84.30
2019-02-12T19:10:19.857Z,84.70
2019-02-12T19:12:49.232Z,85.10
2019-02-12T19:15:20.005Z,85.00
2019-02-12T19:18:07.944Z,84.80
2019-02-12T19:20:37.357Z,84.90
2019-02-12T19:23:06.709Z,84.80
2019-02-12T19:25:36.051Z,84.80
2019-02-12T19:28:05.358Z,85.00
2019-02-12T19:30:34.921Z,84.70
2019-02-12T19:33:04.235Z,84.70
2019-02-12T19:35:33.586Z,84.40
2019-02-12T19:38:02.882Z,84.40
2019-02-12T19:40:32.469Z,84.70
2019-02-12T19:43:01.831Z,84.70
2019-02-12T19:45:31.184Z,84.70
2019-02-12T19:48:00.497Z,84.80
2019-02-12T19:50:31.116Z,85.00
2019-02-12T19:53:00.418Z,85.00
2019-02-12T19:55:29.772Z,85.10
2019-02-12T19:57:59.083Z,85.20
2019-02-12T20:00:28.822Z,85.20
2019-02-12T20:02:58.119Z,85.20
2019-02-12T20:05:27.461Z,85.10
2019-02-12T20:07:56.806Z,85.50
2019-02-12T20:10:26.219Z,85.60
2019-02-12T20:12:55.524Z,85.70
2019-02-12T20:15:24.871Z,85.70
2019-02-12T20:17:54.174Z,85.80
2019-02-12T20:20:23.590Z,85.70
2019-02-12T20:22:52.895Z,85.40
2019-02-12T20:25:23.022Z,85.40
2019-02-12T20:27:52.330Z,85.50
2019-02-12T20:30:21.671Z,85.60
2019-02-12T20:32:51.036Z,86.20
2019-02-12T20:35:21.825Z,85.60
2019-02-12T20:37:51.211Z,85.70
2019-02-12T20:40:20.590Z,85.50
2019-02-12T20:42:49.897Z,85.40
2019-02-12T20:45:21.084Z,85.60
2019-02-12T20:47:50.386Z,85.70
2019-02-12T20:50:20.976Z,85.80
2019-02-12T20:52:50.310Z,85.90
2019-02-12T20:55:19.616Z,85.60
2019-02-12T20:57:48.973Z,85.70
2019-02-12T21:00:21.607Z,85.80
2019-02-12T21:02:50.965Z,85.90
2019-02-12T21:05:20.346Z,85.90
2019-02-12T21:07:49.698Z,86.10
2019-02-12T21:10:21.319Z,86.10
2019-02-12T21:12:52.000Z,86.20
2019-02-12T21:15:23.910Z,86.20
2019-02-12T21:17:53.302Z,86.30
2019-02-12T21:20:22.612Z,86.40
2019-02-12T21:22:51.973Z,86.40
2019-02-12T21:25:21.281Z,86.60
2019-02-12T21:27:50.642Z,86.60
2019-02-12T21:30:25.387Z,86.50
2019-02-12T21:32:54.725Z,86.50
2019-02-12T21:35:24.027Z,86.30
2019-02-12T21:37:53.405Z,86.40
2019-02-12T21:40:28.811Z,86.70
2019-02-12T21:42:58.174Z,86.60
2019-02-12T21:45:40.807Z,86.60
2019-02-12T21:48:10.171Z,87.00
2019-02-12T21:50:39.486Z,87.20
2019-02-12T21:53:08.837Z,87.50
2019-02-12T21:55:38.148Z,87.80
2019-02-12T21:58:07.502Z,88.00
2019-02-12T22:00:36.816Z,88.20
2019-02-12T22:03:06.174Z,88.50
2019-02-12T22:05:35.495Z,88.40
2019-02-12T22:08:04.850Z,88.40
2019-02-12T22:10:34.324Z,88.80
2019-02-12T22:13:03.851Z,88.80
2019-02-12T22:15:33.164Z,89.00
2019-02-12T22:18:02.509Z,89.10
2019-02-12T22:20:31.873Z,89.20
2019-02-12T22:23:01.990Z,89.40
2019-02-12T22:25:31.421Z,89.20
2019-02-12T22:28:00.926Z,89.10
2019-02-12T22:30:32.149Z,89.00
2019-02-12T22:33:01.312Z,89.00
2019-02-12T22:35:30.621Z,88.90
2019-02-12T22:38:00.272Z,88.80
2019-02-12T22:40:29.787Z,89.30
2019-02-12T22:43:01.978Z,89.70
2019-02-12T22:45:31.288Z,89.80
2019-02-12T22:48:00.647Z,89.60
2019-02-12T22:50:32.046Z,89.50
2019-02-12T22:53:01.477Z,89.40
2019-02-12T22:55:30.982Z,89.60
2019-02-12T22:58:00.351Z,89.40
2019-02-12T23:00:49.316Z,89.40
2019-02-12T23:03:19.389Z,89.50
2019-02-12T23:05:48.763Z,89.70
2019-02-12T23:08:18.118Z,89.50
2019-02-12T23:10:47.425Z,89.60
2019-02-12T23:13:16.778Z,89.70
2019-02-12T23:15:46.138Z,89.70
2019-02-12T23:18:15.497Z,89.70
2019-02-12T23:20:44.820Z,89.80
2019-02-12T23:23:14.169Z,89.90
2019-02-12T23:25:43.473Z,89.80
2019-02-12T23:28:12.808Z,89.50
2019-02-12T23:30:42.110Z,89.50
2019-02-12T23:33:11.454Z,89.50
2019-02-12T23:35:40.758Z,89.30
2019-02-12T23:38:10.137Z,89.20
2019-02-12T23:40:39.518Z,89.20
2019-02-12T23:43:08.873Z,88.90
2019-02-12T23:45:38.189Z,88.70
2019-02-12T23:48:07.534Z,88.40
2019-02-12T23:50:36.886Z,88.20
2019-02-12T23:53:06.234Z,88.00
2019-02-12T23:55:35.540Z,88.20
2019-02-12T23:58:06.250Z,87.90
